Terminal Aerodrome Forecast
Issued by NWS

Home | Current Version | Previous Version | Text Only | Print | Product List | Glossary On
Versions: 1 2 3 4 5 6 7 8 9 10 11 12 13 14 15 16
000
FTUS44 KJAN 041800 AAA
TAFGTR
TAF AMD
KGTR 041818Z 0418/0518 18015KT P6SM SCT020 BKN030
     FM042100 21012KT P6SM VCSH BKN015 OVC025
     FM050000 35015G20KT 4SM RA BR OVC007
     FM050900 35020G25KT 5SM -FZRA BR BKN007 OVC015
     FM051300 35023G27KT 4SM -FZRAPL OVC010=

USA.gov is the U.S. government's official web portal to all federal, state and local government web resources and services.